sensor_id;sensor_type;location;lat;lon;timestamp;P1;durP1;ratioP1;P2;durP2;ratioP2
66595;SDS011;59017;49.252;18.838;2022-11-09T00:01:15;18.23;;;10.75;;
66595;SDS011;59017;49.252;18.838;2022-11-09T00:03:41;16.48;;;11.10;;
66595;SDS011;59017;49.252;18.838;2022-11-09T00:06:06;19.35;;;11.60;;
66595;SDS011;59017;49.252;18.838;2022-11-09T00:08:32;17.33;;;11.05;;
66595;SDS011;59017;49.252;18.838;2022-11-09T00:11:01;18.05;;;11.05;;
66595;SDS011;59017;49.252;18.838;2022-11-09T00:13:28;18.45;;;11.40;;
66595;SDS011;59017;49.252;18.838;2022-11-09T00:15:56;17.13;;;11.52;;
66595;SDS011;59017;49.252;18.838;2022-11-09T00:18:23;16.40;;;10.90;;
66595;SDS011;59017;49.252;18.838;2022-11-09T00:20:48;18.17;;;10.85;;
66595;SDS011;59017;49.252;18.838;2022-11-09T00:23:14;17.60;;;11.18;;
66595;SDS011;59017;49.252;18.838;2022-11-09T00:25:40;16.00;;;10.63;;
66595;SDS011;59017;49.252;18.838;2022-11-09T00:28:05;17.05;;;11.30;;
66595;SDS011;59017;49.252;18.838;2022-11-09T00:30:31;17.23;;;11.18;;
66595;SDS011;59017;49.252;18.838;2022-11-09T00:32:56;16.27;;;11.25;;
66595;SDS011;59017;49.252;18.838;2022-11-09T00:35:22;17.58;;;11.13;;
66595;SDS011;59017;49.252;18.838;2022-11-09T00:37:47;18.02;;;10.88;;
66595;SDS011;59017;49.252;18.838;2022-11-09T00:40:13;18.17;;;10.98;;
66595;SDS011;59017;49.252;18.838;2022-11-09T00:42:38;16.23;;;10.90;;
66595;SDS011;59017;49.252;18.838;2022-11-09T00:45:03;15.10;;;10.27;;
66595;SDS011;59017;49.252;18.838;2022-11-09T00:47:29;17.77;;;11.68;;
66595;SDS011;59017;49.252;18.838;2022-11-09T00:49:54;16.85;;;11.13;;
66595;SDS011;59017;49.252;18.838;2022-11-09T00:52:20;17.63;;;11.18;;
66595;SDS011;59017;49.252;18.838;2022-11-09T00:54:46;15.10;;;10.60;;
66595;SDS011;59017;49.252;18.838;2022-11-09T00:57:11;14.77;;;10.70;;
66595;SDS011;59017;49.252;18.838;2022-11-09T00:59:37;16.55;;;10.40;;
66595;SDS011;59017;49.252;18.838;2022-11-09T01:02:03;16.15;;;10.35;;
66595;SDS011;59017;49.252;18.838;2022-11-09T01:04:29;16.85;;;10.98;;
66595;SDS011;59017;49.252;18.838;2022-11-09T01:06:54;16.52;;;10.60;;
66595;SDS011;59017;49.252;18.838;2022-11-09T01:09:20;16.38;;;10.55;;
66595;SDS011;59017;49.252;18.838;2022-11-09T01:11:45;14.95;;;10.63;;
66595;SDS011;59017;49.252;18.838;2022-11-09T01:14:10;18.90;;;11.00;;
66595;SDS011;59017;49.252;18.838;2022-11-09T01:16:36;17.50;;;10.93;;
66595;SDS011;59017;49.252;18.838;2022-11-09T01:19:02;15.30;;;10.55;;
66595;SDS011;59017;49.252;18.838;2022-11-09T01:21:28;16.77;;;10.80;;
66595;SDS011;59017;49.252;18.838;2022-11-09T01:23:54;16.17;;;10.70;;
66595;SDS011;59017;49.252;18.838;2022-11-09T01:26:20;16.13;;;10.40;;
66595;SDS011;59017;49.252;18.838;2022-11-09T01:28:46;16.83;;;10.55;;
66595;SDS011;59017;49.252;18.838;2022-11-09T01:31:13;15.25;;;10.38;;
66595;SDS011;59017;49.252;18.838;2022-11-09T01:33:40;14.90;;;10.52;;
66595;SDS011;59017;49.252;18.838;2022-11-09T01:36:07;14.77;;;10.20;;
66595;SDS011;59017;49.252;18.838;2022-11-09T01:38:34;14.50;;;10.23;;
66595;SDS011;59017;49.252;18.838;2022-11-09T01:41:01;14.82;;;10.13;;
66595;SDS011;59017;49.252;18.838;2022-11-09T01:43:27;16.02;;;10.00;;
66595;SDS011;59017;49.252;18.838;2022-11-09T01:45:54;15.10;;;10.52;;
66595;SDS011;59017;49.252;18.838;2022-11-09T01:48:31;16.48;;;9.95;;
66595;SDS011;59017;49.252;18.838;2022-11-09T01:51:05;14.95;;;10.10;;
66595;SDS011;59017;49.252;18.838;2022-11-09T01:53:36;16.33;;;10.35;;
66595;SDS011;59017;49.252;18.838;2022-11-09T01:56:05;13.55;;;10.00;;
66595;SDS011;59017;49.252;18.838;2022-11-09T01:58:36;18.33;;;11.00;;
66595;SDS011;59017;49.252;18.838;2022-11-09T02:01:05;15.75;;;10.55;;
66595;SDS011;59017;49.252;18.838;2022-11-09T02:03:36;17.02;;;9.80;;
66595;SDS011;59017;49.252;18.838;2022-11-09T02:06:06;17.20;;;10.82;;
66595;SDS011;59017;49.252;18.838;2022-11-09T02:08:33;15.95;;;10.50;;
66595;SDS011;59017;49.252;18.838;2022-11-09T02:11:03;14.70;;;9.80;;
66595;SDS011;59017;49.252;18.838;2022-11-09T02:13:33;18.27;;;10.20;;
66595;SDS011;59017;49.252;18.838;2022-11-09T02:16:00;15.18;;;10.10;;
66595;SDS011;59017;49.252;18.838;2022-11-09T02:18:26;15.57;;;10.27;;
66595;SDS011;59017;49.252;18.838;2022-11-09T02:20:52;15.30;;;9.65;;
66595;SDS011;59017;49.252;18.838;2022-11-09T02:23:19;14.15;;;9.77;;
66595;SDS011;59017;49.252;18.838;2022-11-09T02:25:48;17.45;;;9.45;;
66595;SDS011;59017;49.252;18.838;2022-11-09T02:28:18;14.45;;;9.63;;
66595;SDS011;59017;49.252;18.838;2022-11-09T02:30:44;17.02;;;9.82;;
66595;SDS011;59017;49.252;18.838;2022-11-09T02:33:13;14.13;;;9.48;;
66595;SDS011;59017;49.252;18.838;2022-11-09T02:35:39;14.35;;;9.90;;
66595;SDS011;59017;49.252;18.838;2022-11-09T02:38:05;15.32;;;9.82;;
66595;SDS011;59017;49.252;18.838;2022-11-09T02:40:34;15.65;;;9.93;;
66595;SDS011;59017;49.252;18.838;2022-11-09T02:43:02;13.98;;;9.35;;
66595;SDS011;59017;49.252;18.838;2022-11-09T02:45:30;14.85;;;9.52;;
66595;SDS011;59017;49.252;18.838;2022-11-09T02:47:55;13.68;;;9.60;;
66595;SDS011;59017;49.252;18.838;2022-11-09T02:50:21;14.77;;;9.80;;
66595;SDS011;59017;49.252;18.838;2022-11-09T02:52:46;14.30;;;9.57;;
66595;SDS011;59017;49.252;18.838;2022-11-09T02:55:12;14.35;;;9.98;;
66595;SDS011;59017;49.252;18.838;2022-11-09T02:57:37;15.05;;;9.35;;
66595;SDS011;59017;49.252;18.838;2022-11-09T03:00:03;13.48;;;9.30;;
66595;SDS011;59017;49.252;18.838;2022-11-09T03:02:30;14.30;;;9.95;;
66595;SDS011;59017;49.252;18.838;2022-11-09T03:04:55;13.73;;;9.25;;
66595;SDS011;59017;49.252;18.838;2022-11-09T03:07:21;14.73;;;9.90;;
66595;SDS011;59017;49.252;18.838;2022-11-09T03:09:46;13.20;;;8.93;;
66595;SDS011;59017;49.252;18.838;2022-11-09T03:12:12;13.55;;;9.40;;
66595;SDS011;59017;49.252;18.838;2022-11-09T03:17:25;12.75;;;9.30;;
66595;SDS011;59017;49.252;18.838;2022-11-09T03:19:50;13.73;;;9.23;;
66595;SDS011;59017;49.252;18.838;2022-11-09T03:22:16;15.25;;;9.48;;
66595;SDS011;59017;49.252;18.838;2022-11-09T03:24:42;14.38;;;9.80;;
66595;SDS011;59017;49.252;18.838;2022-11-09T03:27:07;13.35;;;9.20;;
66595;SDS011;59017;49.252;18.838;2022-11-09T03:29:32;14.73;;;9.75;;
66595;SDS011;59017;49.252;18.838;2022-11-09T03:31:58;13.90;;;9.73;;
66595;SDS011;59017;49.252;18.838;2022-11-09T03:34:23;13.93;;;9.63;;
66595;SDS011;59017;49.252;18.838;2022-11-09T03:36:49;12.30;;;8.73;;
66595;SDS011;59017;49.252;18.838;2022-11-09T03:39:14;13.30;;;9.07;;
66595;SDS011;59017;49.252;18.838;2022-11-09T03:41:40;11.63;;;8.50;;
66595;SDS011;59017;49.252;18.838;2022-11-09T03:44:05;13.80;;;9.35;;
66595;SDS011;59017;49.252;18.838;2022-11-09T03:46:30;12.63;;;9.00;;
66595;SDS011;59017;49.252;18.838;2022-11-09T03:48:56;12.75;;;9.43;;
66595;SDS011;59017;49.252;18.838;2022-11-09T03:51:21;15.30;;;9.10;;
66595;SDS011;59017;49.252;18.838;2022-11-09T03:53:47;13.25;;;9.32;;
66595;SDS011;59017;49.252;18.838;2022-11-09T03:56:12;16.13;;;9.55;;
66595;SDS011;59017;49.252;18.838;2022-11-09T03:58:38;13.40;;;9.07;;
66595;SDS011;59017;49.252;18.838;2022-11-09T04:01:03;14.77;;;9.20;;
66595;SDS011;59017;49.252;18.838;2022-11-09T04:03:29;12.60;;;8.45;;
66595;SDS011;59017;49.252;18.838;2022-11-09T04:05:56;12.63;;;8.88;;
66595;SDS011;59017;49.252;18.838;2022-11-09T04:08:22;13.13;;;9.35;;
66595;SDS011;59017;49.252;18.838;2022-11-09T04:10:48;12.50;;;8.60;;
66595;SDS011;59017;49.252;18.838;2022-11-09T04:13:13;13.40;;;9.23;;
66595;SDS011;59017;49.252;18.838;2022-11-09T04:15:39;14.07;;;9.45;;
66595;SDS011;59017;49.252;18.838;2022-11-09T04:18:04;14.18;;;9.30;;
66595;SDS011;59017;49.252;18.838;2022-11-09T04:20:30;10.98;;;8.07;;
66595;SDS011;59017;49.252;18.838;2022-11-09T04:22:57;17.75;;;8.80;;
66595;SDS011;59017;49.252;18.838;2022-11-09T04:25:24;13.55;;;8.90;;
66595;SDS011;59017;49.252;18.838;2022-11-09T04:27:55;13.70;;;8.95;;
66595;SDS011;59017;49.252;18.838;2022-11-09T04:30:21;13.27;;;8.68;;
66595;SDS011;59017;49.252;18.838;2022-11-09T04:32:47;13.50;;;8.63;;
66595;SDS011;59017;49.252;18.838;2022-11-09T04:35:13;12.13;;;8.65;;
66595;SDS011;59017;49.252;18.838;2022-11-09T04:37:38;12.35;;;9.05;;
66595;SDS011;59017;49.252;18.838;2022-11-09T04:40:03;11.98;;;8.60;;
66595;SDS011;59017;49.252;18.838;2022-11-09T04:42:29;13.98;;;8.75;;
66595;SDS011;59017;49.252;18.838;2022-11-09T04:44:55;13.07;;;8.90;;
66595;SDS011;59017;49.252;18.838;2022-11-09T04:47:21;12.75;;;9.07;;
66595;SDS011;59017;49.252;18.838;2022-11-09T04:49:46;11.60;;;8.35;;
66595;SDS011;59017;49.252;18.838;2022-11-09T04:52:12;11.35;;;8.52;;
66595;SDS011;59017;49.252;18.838;2022-11-09T04:54:37;12.25;;;8.75;;
66595;SDS011;59017;49.252;18.838;2022-11-09T04:57:03;12.05;;;8.18;;
66595;SDS011;59017;49.252;18.838;2022-11-09T04:59:28;13.25;;;8.88;;
66595;SDS011;59017;49.252;18.838;2022-11-09T05:01:53;13.93;;;9.32;;
66595;SDS011;59017;49.252;18.838;2022-11-09T05:04:19;14.18;;;8.50;;
66595;SDS011;59017;49.252;18.838;2022-11-09T05:06:44;14.10;;;9.05;;
66595;SDS011;59017;49.252;18.838;2022-11-09T05:09:10;11.93;;;8.52;;
66595;SDS011;59017;49.252;18.838;2022-11-09T05:11:35;10.80;;;8.00;;
66595;SDS011;59017;49.252;18.838;2022-11-09T05:14:01;13.23;;;8.27;;
66595;SDS011;59017;49.252;18.838;2022-11-09T05:16:29;12.20;;;8.55;;
66595;SDS011;59017;49.252;18.838;2022-11-09T05:18:55;14.75;;;9.27;;
66595;SDS011;59017;49.252;18.838;2022-11-09T05:21:20;12.52;;;8.73;;
66595;SDS011;59017;49.252;18.838;2022-11-09T05:23:46;15.23;;;8.90;;
66595;SDS011;59017;49.252;18.838;2022-11-09T05:26:34;13.43;;;8.95;;
66595;SDS011;59017;49.252;18.838;2022-11-09T05:29:06;12.25;;;8.63;;
66595;SDS011;59017;49.252;18.838;2022-11-09T05:31:34;11.32;;;7.95;;
66595;SDS011;59017;49.252;18.838;2022-11-09T05:34:00;13.07;;;8.88;;
66595;SDS011;59017;49.252;18.838;2022-11-09T05:36:27;11.68;;;8.25;;
66595;SDS011;59017;49.252;18.838;2022-11-09T05:38:54;13.48;;;9.82;;
66595;SDS011;59017;49.252;18.838;2022-11-09T05:41:20;13.35;;;9.10;;
66595;SDS011;59017;49.252;18.838;2022-11-09T05:43:46;11.25;;;8.35;;
66595;SDS011;59017;49.252;18.838;2022-11-09T05:46:13;12.85;;;8.85;;
66595;SDS011;59017;49.252;18.838;2022-11-09T05:48:39;14.13;;;9.05;;
66595;SDS011;59017;49.252;18.838;2022-11-09T05:51:06;11.57;;;8.77;;
66595;SDS011;59017;49.252;18.838;2022-11-09T05:53:32;11.18;;;8.20;;
66595;SDS011;59017;49.252;18.838;2022-11-09T05:56:05;12.50;;;9.10;;
66595;SDS011;59017;49.252;18.838;2022-11-09T05:58:32;12.02;;;8.32;;
66595;SDS011;59017;49.252;18.838;2022-11-09T06:01:07;11.43;;;8.40;;
66595;SDS011;59017;49.252;18.838;2022-11-09T06:03:35;11.15;;;7.60;;
66595;SDS011;59017;49.252;18.838;2022-11-09T06:06:01;12.05;;;8.57;;
66595;SDS011;59017;49.252;18.838;2022-11-09T06:08:28;12.18;;;8.80;;
66595;SDS011;59017;49.252;18.838;2022-11-09T06:11:00;11.35;;;7.75;;
66595;SDS011;59017;49.252;18.838;2022-11-09T06:13:27;11.13;;;8.15;;
66595;SDS011;59017;49.252;18.838;2022-11-09T06:15:53;12.15;;;8.27;;
66595;SDS011;59017;49.252;18.838;2022-11-09T06:18:23;12.65;;;8.32;;
66595;SDS011;59017;49.252;18.838;2022-11-09T06:20:53;12.23;;;8.27;;
66595;SDS011;59017;49.252;18.838;2022-11-09T06:23:25;11.40;;;7.88;;
66595;SDS011;59017;49.252;18.838;2022-11-09T06:26:12;11.85;;;8.25;;
66595;SDS011;59017;49.252;18.838;2022-11-09T06:28:37;11.68;;;8.35;;
66595;SDS011;59017;49.252;18.838;2022-11-09T06:31:04;10.80;;;7.55;;
66595;SDS011;59017;49.252;18.838;2022-11-09T06:33:32;12.02;;;8.25;;
66595;SDS011;59017;49.252;18.838;2022-11-09T06:35:58;12.32;;;8.68;;
66595;SDS011;59017;49.252;18.838;2022-11-09T06:38:24;12.90;;;8.40;;
66595;SDS011;59017;49.252;18.838;2022-11-09T06:40:53;11.00;;;8.40;;
66595;SDS011;59017;49.252;18.838;2022-11-09T06:43:20;12.90;;;7.90;;
66595;SDS011;59017;49.252;18.838;2022-11-09T06:45:45;10.82;;;7.70;;
66595;SDS011;59017;49.252;18.838;2022-11-09T06:48:11;11.27;;;7.97;;
66595;SDS011;59017;49.252;18.838;2022-11-09T06:50:37;12.43;;;8.38;;
66595;SDS011;59017;49.252;18.838;2022-11-09T06:53:03;13.18;;;8.82;;
66595;SDS011;59017;49.252;18.838;2022-11-09T06:55:30;11.48;;;8.50;;
66595;SDS011;59017;49.252;18.838;2022-11-09T06:57:57;11.73;;;8.35;;
66595;SDS011;59017;49.252;18.838;2022-11-09T07:00:23;11.20;;;8.38;;
66595;SDS011;59017;49.252;18.838;2022-11-09T07:02:50;11.65;;;8.38;;
66595;SDS011;59017;49.252;18.838;2022-11-09T07:05:16;10.95;;;8.07;;
66595;SDS011;59017;49.252;18.838;2022-11-09T07:07:41;10.55;;;7.80;;
66595;SDS011;59017;49.252;18.838;2022-11-09T07:10:07;12.77;;;8.40;;
66595;SDS011;59017;49.252;18.838;2022-11-09T07:12:33;11.85;;;8.10;;
66595;SDS011;59017;49.252;18.838;2022-11-09T07:14:59;12.48;;;7.90;;
66595;SDS011;59017;49.252;18.838;2022-11-09T07:17:25;12.15;;;8.07;;
66595;SDS011;59017;49.252;18.838;2022-11-09T07:19:53;12.02;;;8.18;;
66595;SDS011;59017;49.252;18.838;2022-11-09T07:22:18;12.00;;;8.02;;
66595;SDS011;59017;49.252;18.838;2022-11-09T07:24:44;12.18;;;7.90;;
66595;SDS011;59017;49.252;18.838;2022-11-09T07:27:10;13.13;;;8.02;;
66595;SDS011;59017;49.252;18.838;2022-11-09T07:29:35;11.23;;;7.85;;
66595;SDS011;59017;49.252;18.838;2022-11-09T07:32:01;12.70;;;8.25;;
66595;SDS011;59017;49.252;18.838;2022-11-09T07:34:26;11.70;;;7.80;;
66595;SDS011;59017;49.252;18.838;2022-11-09T07:36:52;12.20;;;8.50;;
66595;SDS011;59017;49.252;18.838;2022-11-09T07:39:18;12.35;;;8.55;;
66595;SDS011;59017;49.252;18.838;2022-11-09T07:41:45;11.77;;;8.32;;
66595;SDS011;59017;49.252;18.838;2022-11-09T07:44:12;11.85;;;7.88;;
66595;SDS011;59017;49.252;18.838;2022-11-09T07:46:42;11.73;;;8.00;;
66595;SDS011;59017;49.252;18.838;2022-11-09T07:49:08;13.90;;;8.80;;
66595;SDS011;59017;49.252;18.838;2022-11-09T07:51:33;12.30;;;7.88;;
66595;SDS011;59017;49.252;18.838;2022-11-09T07:53:59;11.75;;;7.97;;
66595;SDS011;59017;49.252;18.838;2022-11-09T07:56:25;10.50;;;8.00;;
66595;SDS011;59017;49.252;18.838;2022-11-09T07:58:50;14.35;;;8.07;;
66595;SDS011;59017;49.252;18.838;2022-11-09T08:01:16;11.23;;;8.30;;
66595;SDS011;59017;49.252;18.838;2022-11-09T08:03:41;12.52;;;7.93;;
66595;SDS011;59017;49.252;18.838;2022-11-09T08:06:06;12.32;;;8.63;;
66595;SDS011;59017;49.252;18.838;2022-11-09T08:08:32;13.93;;;8.02;;
66595;SDS011;59017;49.252;18.838;2022-11-09T08:10:57;13.05;;;8.45;;
66595;SDS011;59017;49.252;18.838;2022-11-09T08:13:23;11.13;;;7.55;;
66595;SDS011;59017;49.252;18.838;2022-11-09T08:15:49;13.68;;;7.68;;
66595;SDS011;59017;49.252;18.838;2022-11-09T08:18:16;12.77;;;7.90;;
66595;SDS011;59017;49.252;18.838;2022-11-09T08:20:43;12.60;;;7.55;;
66595;SDS011;59017;49.252;18.838;2022-11-09T08:23:12;10.98;;;8.00;;
66595;SDS011;59017;49.252;18.838;2022-11-09T08:25:39;11.02;;;8.10;;
66595;SDS011;59017;49.252;18.838;2022-11-09T08:28:04;12.05;;;8.30;;
66595;SDS011;59017;49.252;18.838;2022-11-09T08:30:30;11.45;;;8.10;;
66595;SDS011;59017;49.252;18.838;2022-11-09T08:32:56;10.95;;;7.35;;
66595;SDS011;59017;49.252;18.838;2022-11-09T08:35:23;12.57;;;7.50;;
66595;SDS011;59017;49.252;18.838;2022-11-09T08:37:49;10.18;;;7.55;;
66595;SDS011;59017;49.252;18.838;2022-11-09T08:40:17;10.07;;;7.53;;
66595;SDS011;59017;49.252;18.838;2022-11-09T08:42:49;12.82;;;7.88;;
66595;SDS011;59017;49.252;18.838;2022-11-09T08:45:15;12.15;;;7.78;;
66595;SDS011;59017;49.252;18.838;2022-11-09T08:47:41;11.55;;;8.00;;
66595;SDS011;59017;49.252;18.838;2022-11-09T08:50:08;10.43;;;7.80;;
66595;SDS011;59017;49.252;18.838;2022-11-09T08:52:35;10.60;;;7.63;;
66595;SDS011;59017;49.252;18.838;2022-11-09T08:55:00;11.40;;;8.05;;
66595;SDS011;59017;49.252;18.838;2022-11-09T08:57:26;10.93;;;7.35;;
66595;SDS011;59017;49.252;18.838;2022-11-09T08:59:52;12.10;;;8.05;;
66595;SDS011;59017;49.252;18.838;2022-11-09T09:02:18;10.52;;;7.35;;
66595;SDS011;59017;49.252;18.838;2022-11-09T09:04:44;10.27;;;7.43;;
66595;SDS011;59017;49.252;18.838;2022-11-09T09:07:11;11.20;;;7.32;;
66595;SDS011;59017;49.252;18.838;2022-11-09T09:09:37;10.80;;;8.00;;
66595;SDS011;59017;49.252;18.838;2022-11-09T09:12:03;10.57;;;7.50;;
66595;SDS011;59017;49.252;18.838;2022-11-09T09:14:30;11.27;;;7.65;;
66595;SDS011;59017;49.252;18.838;2022-11-09T09:16:55;10.05;;;7.38;;
66595;SDS011;59017;49.252;18.838;2022-11-09T09:19:21;11.40;;;7.32;;
66595;SDS011;59017;49.252;18.838;2022-11-09T09:21:46;10.13;;;7.32;;
66595;SDS011;59017;49.252;18.838;2022-11-09T09:24:12;11.40;;;8.10;;
66595;SDS011;59017;49.252;18.838;2022-11-09T09:26:37;11.88;;;7.88;;
66595;SDS011;59017;49.252;18.838;2022-11-09T09:29:03;14.10;;;7.57;;
66595;SDS011;59017;49.252;18.838;2022-11-09T09:31:28;12.38;;;7.78;;
66595;SDS011;59017;49.252;18.838;2022-11-09T09:33:54;10.40;;;7.18;;
66595;SDS011;59017;49.252;18.838;2022-11-09T09:36:20;11.00;;;7.80;;
66595;SDS011;59017;49.252;18.838;2022-11-09T09:38:51;12.23;;;7.80;;
66595;SDS011;59017;49.252;18.838;2022-11-09T09:43:47;10.93;;;7.40;;
66595;SDS011;59017;49.252;18.838;2022-11-09T09:46:37;11.68;;;7.22;;
66595;SDS011;59017;49.252;18.838;2022-11-09T09:49:24;9.27;;;7.10;;
66595;SDS011;59017;49.252;18.838;2022-11-09T09:54:42;14.38;;;7.57;;
66595;SDS011;59017;49.252;18.838;2022-11-09T09:57:17;10.50;;;6.57;;
66595;SDS011;59017;49.252;18.838;2022-11-09T09:59:49;20.05;;;7.68;;
66595;SDS011;59017;49.252;18.838;2022-11-09T10:04:49;11.98;;;7.72;;
66595;SDS011;59017;49.252;18.838;2022-11-09T10:10:23;10.73;;;7.00;;
66595;SDS011;59017;49.252;18.838;2022-11-09T10:12:55;12.65;;;7.05;;
66595;SDS011;59017;49.252;18.838;2022-11-09T10:15:34;14.77;;;7.57;;
66595;SDS011;59017;49.252;18.838;2022-11-09T10:18:13;10.98;;;7.40;;
66595;SDS011;59017;49.252;18.838;2022-11-09T10:21:07;10.00;;;7.22;;
66595;SDS011;59017;49.252;18.838;2022-11-09T10:26:22;12.30;;;7.18;;
66595;SDS011;59017;49.252;18.838;2022-11-09T10:28:55;13.13;;;7.65;;
66595;SDS011;59017;49.252;18.838;2022-11-09T10:31:24;11.30;;;7.22;;
66595;SDS011;59017;49.252;18.838;2022-11-09T10:33:59;12.82;;;7.45;;
66595;SDS011;59017;49.252;18.838;2022-11-09T10:36:44;12.23;;;7.60;;
66595;SDS011;59017;49.252;18.838;2022-11-09T10:39:15;10.20;;;7.28;;
66595;SDS011;59017;49.252;18.838;2022-11-09T10:41:42;12.00;;;7.35;;
66595;SDS011;59017;49.252;18.838;2022-11-09T10:44:12;11.07;;;7.43;;
66595;SDS011;59017;49.252;18.838;2022-11-09T10:49:35;13.02;;;8.40;;
66595;SDS011;59017;49.252;18.838;2022-11-09T10:52:02;10.82;;;7.82;;
66595;SDS011;59017;49.252;18.838;2022-11-09T10:54:30;11.50;;;7.72;;
66595;SDS011;59017;49.252;18.838;2022-11-09T10:57:03;10.77;;;7.68;;
66595;SDS011;59017;49.252;18.838;2022-11-09T10:59:49;13.73;;;8.07;;
66595;SDS011;59017;49.252;18.838;2022-11-09T11:04:48;12.57;;;8.15;;
66595;SDS011;59017;49.252;18.838;2022-11-09T11:07:16;11.75;;;7.82;;
66595;SDS011;59017;49.252;18.838;2022-11-09T11:09:44;12.82;;;8.27;;
66595;SDS011;59017;49.252;18.838;2022-11-09T11:12:18;13.50;;;8.52;;
66595;SDS011;59017;49.252;18.838;2022-11-09T11:14:44;13.00;;;8.40;;
66595;SDS011;59017;49.252;18.838;2022-11-09T11:17:55;12.77;;;8.05;;
66595;SDS011;59017;49.252;18.838;2022-11-09T11:22:53;16.63;;;8.63;;
66595;SDS011;59017;49.252;18.838;2022-11-09T11:26:01;13.75;;;8.82;;
66595;SDS011;59017;49.252;18.838;2022-11-09T11:28:38;13.77;;;8.55;;
66595;SDS011;59017;49.252;18.838;2022-11-09T11:31:13;11.80;;;8.27;;
66595;SDS011;59017;49.252;18.838;2022-11-09T11:33:40;13.20;;;8.32;;
66595;SDS011;59017;49.252;18.838;2022-11-09T11:45:19;13.25;;;8.98;;
66595;SDS011;59017;49.252;18.838;2022-11-09T12:02:26;14.55;;;9.15;;
66595;SDS011;59017;49.252;18.838;2022-11-09T12:05:23;13.48;;;8.93;;
66595;SDS011;59017;49.252;18.838;2022-11-09T12:16:09;15.50;;;9.23;;
66595;SDS011;59017;49.252;18.838;2022-11-09T12:24:38;14.10;;;9.02;;
66595;SDS011;59017;49.252;18.838;2022-11-09T12:27:07;15.48;;;9.60;;
66595;SDS011;59017;49.252;18.838;2022-11-09T12:38:18;16.75;;;9.60;;
66595;SDS011;59017;49.252;18.838;2022-11-09T12:40:56;15.00;;;9.20;;
66595;SDS011;59017;49.252;18.838;2022-11-09T12:46:09;16.20;;;9.50;;
66595;SDS011;59017;49.252;18.838;2022-11-09T12:48:35;14.10;;;9.45;;
66595;SDS011;59017;49.252;18.838;2022-11-09T12:51:01;16.08;;;9.77;;
66595;SDS011;59017;49.252;18.838;2022-11-09T12:53:31;17.48;;;9.52;;
66595;SDS011;59017;49.252;18.838;2022-11-09T12:58:42;16.10;;;10.05;;
66595;SDS011;59017;49.252;18.838;2022-11-09T13:01:12;16.15;;;9.55;;
66595;SDS011;59017;49.252;18.838;2022-11-09T13:03:59;14.98;;;9.70;;
66595;SDS011;59017;49.252;18.838;2022-11-09T13:06:30;16.10;;;9.23;;
66595;SDS011;59017;49.252;18.838;2022-11-09T13:16:55;13.73;;;8.85;;
66595;SDS011;59017;49.252;18.838;2022-11-09T13:33:23;12.00;;;8.32;;
66595;SDS011;59017;49.252;18.838;2022-11-09T13:40:47;13.25;;;8.00;;
66595;SDS011;59017;49.252;18.838;2022-11-09T13:43:18;13.55;;;8.00;;
66595;SDS011;59017;49.252;18.838;2022-11-09T13:46:01;11.25;;;7.82;;
66595;SDS011;59017;49.252;18.838;2022-11-09T13:48:38;12.20;;;7.80;;
66595;SDS011;59017;49.252;18.838;2022-11-09T13:53:49;10.93;;;7.38;;
66595;SDS011;59017;49.252;18.838;2022-11-09T13:58:46;11.75;;;7.78;;
66595;SDS011;59017;49.252;18.838;2022-11-09T14:03:59;11.20;;;7.45;;
66595;SDS011;59017;49.252;18.838;2022-11-09T14:06:28;11.68;;;7.55;;
66595;SDS011;59017;49.252;18.838;2022-11-09T14:08:55;11.55;;;7.50;;
66595;SDS011;59017;49.252;18.838;2022-11-09T14:22:38;11.88;;;7.68;;
66595;SDS011;59017;49.252;18.838;2022-11-09T14:25:14;13.15;;;8.07;;
66595;SDS011;59017;49.252;18.838;2022-11-09T14:27:51;11.80;;;7.00;;
66595;SDS011;59017;49.252;18.838;2022-11-09T14:30:28;11.48;;;7.15;;
66595;SDS011;59017;49.252;18.838;2022-11-09T14:32:55;12.57;;;7.18;;
66595;SDS011;59017;49.252;18.838;2022-11-09T14:37:53;11.25;;;7.03;;
66595;SDS011;59017;49.252;18.838;2022-11-09T14:40:27;12.05;;;6.78;;
66595;SDS011;59017;49.252;18.838;2022-11-09T14:42:56;11.48;;;6.93;;
66595;SDS011;59017;49.252;18.838;2022-11-09T14:45:24;12.15;;;7.05;;
66595;SDS011;59017;49.252;18.838;2022-11-09T14:47:51;15.35;;;6.78;;
66595;SDS011;59017;49.252;18.838;2022-11-09T14:52:47;12.15;;;6.85;;
66595;SDS011;59017;49.252;18.838;2022-11-09T14:55:15;11.32;;;6.97;;
66595;SDS011;59017;49.252;18.838;2022-11-09T14:57:43;10.18;;;6.60;;
66595;SDS011;59017;49.252;18.838;2022-11-09T15:00:20;13.13;;;6.88;;
66595;SDS011;59017;49.252;18.838;2022-11-09T15:02:51;11.45;;;6.88;;
66595;SDS011;59017;49.252;18.838;2022-11-09T15:05:28;11.20;;;6.85;;
66595;SDS011;59017;49.252;18.838;2022-11-09T15:07:55;9.02;;;6.25;;
66595;SDS011;59017;49.252;18.838;2022-11-09T15:10:22;9.38;;;6.55;;
66595;SDS011;59017;49.252;18.838;2022-11-09T15:12:52;12.20;;;6.97;;
66595;SDS011;59017;49.252;18.838;2022-11-09T15:15:21;10.60;;;6.90;;
66595;SDS011;59017;49.252;18.838;2022-11-09T15:17:49;10.55;;;6.97;;
66595;SDS011;59017;49.252;18.838;2022-11-09T15:22:49;10.63;;;6.43;;
66595;SDS011;59017;49.252;18.838;2022-11-09T15:30:40;11.90;;;6.72;;
66595;SDS011;59017;49.252;18.838;2022-11-09T15:33:17;10.32;;;6.38;;
66595;SDS011;59017;49.252;18.838;2022-11-09T15:35:51;11.00;;;6.35;;
66595;SDS011;59017;49.252;18.838;2022-11-09T15:38:28;14.20;;;7.43;;
66595;SDS011;59017;49.252;18.838;2022-11-09T15:41:20;13.43;;;7.03;;
66595;SDS011;59017;49.252;18.838;2022-11-09T15:43:47;14.70;;;7.03;;
66595;SDS011;59017;49.252;18.838;2022-11-09T15:46:13;12.05;;;6.65;;
66595;SDS011;59017;49.252;18.838;2022-11-09T15:51:10;11.80;;;6.75;;
66595;SDS011;59017;49.252;18.838;2022-11-09T15:53:36;12.32;;;6.90;;
66595;SDS011;59017;49.252;18.838;2022-11-09T15:56:02;12.00;;;7.03;;
66595;SDS011;59017;49.252;18.838;2022-11-09T15:58:28;11.25;;;6.95;;
66595;SDS011;59017;49.252;18.838;2022-11-09T16:00:53;9.75;;;6.80;;
66595;SDS011;59017;49.252;18.838;2022-11-09T16:03:18;9.85;;;6.40;;
66595;SDS011;59017;49.252;18.838;2022-11-09T16:05:44;10.18;;;6.47;;
66595;SDS011;59017;49.252;18.838;2022-11-09T16:08:10;10.82;;;6.82;;
66595;SDS011;59017;49.252;18.838;2022-11-09T16:10:36;9.93;;;6.57;;
66595;SDS011;59017;49.252;18.838;2022-11-09T16:13:04;9.38;;;6.85;;
66595;SDS011;59017;49.252;18.838;2022-11-09T16:15:31;10.73;;;6.38;;
66595;SDS011;59017;49.252;18.838;2022-11-09T16:17:58;10.35;;;6.63;;
66595;SDS011;59017;49.252;18.838;2022-11-09T16:20:24;13.48;;;6.88;;
66595;SDS011;59017;49.252;18.838;2022-11-09T16:22:49;12.85;;;6.75;;
66595;SDS011;59017;49.252;18.838;2022-11-09T16:25:15;9.65;;;6.40;;
66595;SDS011;59017;49.252;18.838;2022-11-09T16:27:40;13.80;;;7.30;;
66595;SDS011;59017;49.252;18.838;2022-11-09T16:30:06;9.48;;;6.35;;
66595;SDS011;59017;49.252;18.838;2022-11-09T16:32:33;10.02;;;6.43;;
66595;SDS011;59017;49.252;18.838;2022-11-09T16:34:59;11.65;;;6.80;;
66595;SDS011;59017;49.252;18.838;2022-11-09T16:37:25;9.90;;;6.78;;
66595;SDS011;59017;49.252;18.838;2022-11-09T16:39:55;11.02;;;6.15;;
66595;SDS011;59017;49.252;18.838;2022-11-09T16:42:22;11.23;;;6.85;;
66595;SDS011;59017;49.252;18.838;2022-11-09T16:44:49;11.05;;;6.47;;